sensor_id;sensor_type;location;lat;lon;timestamp;pressure;altitude;pressure_sealevel;temperature;humidity
84232;BME280;74368;48.022;13.830;2023-11-22T21:24:27;97596.34;;;24.52;38.03
84232;BME280;74368;48.022;13.830;2023-11-22T21:26:55;97599.88;;;24.58;39.23
84232;BME280;74368;48.022;13.830;2023-11-22T21:31:22;97628.94;;;17.91;29.52
84232;BME280;74368;48.022;13.830;2023-11-22T21:33:49;97591.69;;;11.59;41.20
84232;BME280;74368;48.022;13.830;2023-11-22T21:36:15;97634.56;;;8.11;52.84
84232;BME280;74368;48.022;13.830;2023-11-22T21:38:40;97596.66;;;6.12;58.44
84232;BME280;74368;48.022;13.830;2023-11-22T21:41:06;97612.06;;;4.97;63.71
84232;BME280;74368;48.022;13.830;2023-11-22T21:43:36;97581.34;;;3.99;66.79
84232;BME280;74368;48.022;13.830;2023-11-22T21:46:02;97600.06;;;3.59;69.63
84232;BME280;74368;48.022;13.830;2023-11-22T21:48:28;97586.19;;;2.99;71.99
84232;BME280;74368;48.022;13.830;2023-11-22T21:50:54;97579.28;;;2.72;73.60
84232;BME280;74368;48.022;13.830;2023-11-22T21:53:19;97606.13;;;2.79;74.76
84232;BME280;74368;48.022;13.830;2023-11-22T21:55:45;97566.31;;;2.35;74.82
84232;BME280;74368;48.022;13.830;2023-11-22T21:58:10;97569.25;;;2.24;75.17
84232;BME280;74368;48.022;13.830;2023-11-22T22:00:37;97606.78;;;2.31;76.52
84232;BME280;74368;48.022;13.830;2023-11-22T22:03:02;97605.41;;;2.27;76.55
84232;BME280;74368;48.022;13.830;2023-11-22T22:05:28;97625.59;;;2.29;76.11
84232;BME280;74368;48.022;13.830;2023-11-22T22:07:53;97575.09;;;1.94;76.64
84232;BME280;74368;48.022;13.830;2023-11-22T22:10:18;97590.78;;;1.97;77.14
84232;BME280;74368;48.022;13.830;2023-11-22T22:12:45;97646.88;;;2.21;77.42
84232;BME280;74368;48.022;13.830;2023-11-22T22:15:10;97645.72;;;2.24;77.39
84232;BME280;74368;48.022;13.830;2023-11-22T22:17:35;97608.13;;;2.01;78.13
84232;BME280;74368;48.022;13.830;2023-11-22T22:20:01;97652.22;;;2.21;77.77
84232;BME280;74368;48.022;13.830;2023-11-22T22:22:27;97581.31;;;1.77;78.20
84232;BME280;74368;48.022;13.830;2023-11-22T22:24:52;97660.25;;;2.29;77.08
84232;BME280;74368;48.022;13.830;2023-11-22T22:27:18;97518.97;;;1.36;76.98
84232;BME280;74368;48.022;13.830;2023-11-22T22:29:44;97638.09;;;2.03;77.68
84232;BME280;74368;48.022;13.830;2023-11-22T22:32:09;97661.00;;;2.14;77.82
84232;BME280;74368;48.022;13.830;2023-11-22T22:34:34;97600.63;;;1.79;77.65
84232;BME280;74368;48.022;13.830;2023-11-22T22:37:00;97651.78;;;2.08;78.53
84232;BME280;74368;48.022;13.830;2023-11-22T22:39:25;97601.78;;;1.76;78.04
84232;BME280;74368;48.022;13.830;2023-11-22T22:41:51;97650.28;;;2.06;78.56
84232;BME280;74368;48.022;13.830;2023-11-22T22:44:17;97602.16;;;1.81;77.26
84232;BME280;74368;48.022;13.830;2023-11-22T22:46:42;97614.53;;;1.90;78.57
84232;BME280;74368;48.022;13.830;2023-11-22T22:49:08;97612.78;;;1.99;77.50
84232;BME280;74368;48.022;13.830;2023-11-22T22:51:33;97650.22;;;2.23;77.35
84232;BME280;74368;48.022;13.830;2023-11-22T22:53:58;97662.06;;;2.54;77.48
84232;BME280;74368;48.022;13.830;2023-11-22T22:56:24;97640.31;;;2.41;77.45
84232;BME280;74368;48.022;13.830;2023-11-22T22:58:49;97640.66;;;2.46;77.07
84232;BME280;74368;48.022;13.830;2023-11-22T23:01:15;97642.66;;;2.44;77.33
84232;BME280;74368;48.022;13.830;2023-11-22T23:03:41;97549.47;;;1.67;77.88
84232;BME280;74368;48.022;13.830;2023-11-22T23:06:08;97641.44;;;2.31;78.02
84232;BME280;74368;48.022;13.830;2023-11-22T23:08:37;97622.19;;;2.19;77.63
84232;BME280;74368;48.022;13.830;2023-11-22T23:11:02;97570.72;;;1.85;78.16
84232;BME280;74368;48.022;13.830;2023-11-22T23:13:30;97638.16;;;2.11;78.17
84232;BME280;74368;48.022;13.830;2023-11-22T23:15:56;97575.16;;;1.76;78.80
84232;BME280;74368;48.022;13.830;2023-11-22T23:18:21;97604.25;;;1.95;78.18
84232;BME280;74368;48.022;13.830;2023-11-22T23:20:48;97594.53;;;1.86;78.84
84232;BME280;74368;48.022;13.830;2023-11-22T23:23:14;97595.88;;;1.90;78.47
84232;BME280;74368;48.022;13.830;2023-11-22T23:25:39;97647.81;;;2.12;78.60
84232;BME280;74368;48.022;13.830;2023-11-22T23:28:04;97635.44;;;2.03;78.69
84232;BME280;74368;48.022;13.830;2023-11-22T23:30:30;97614.13;;;2.03;78.96
84232;BME280;74368;48.022;13.830;2023-11-22T23:32:55;97619.13;;;2.06;78.03
84232;BME280;74368;48.022;13.830;2023-11-22T23:35:20;97643.25;;;2.05;78.41
84232;BME280;74368;48.022;13.830;2023-11-22T23:37:47;97629.66;;;1.90;77.92
84232;BME280;74368;48.022;13.830;2023-11-22T23:40:13;97612.88;;;1.89;78.75
84232;BME280;74368;48.022;13.830;2023-11-22T23:42:40;97602.22;;;1.89;78.37
84232;BME280;74368;48.022;13.830;2023-11-22T23:45:07;97620.44;;;2.02;78.31
84232;BME280;74368;48.022;13.830;2023-11-22T23:47:37;97626.19;;;2.15;78.31
84232;BME280;74368;48.022;13.830;2023-11-22T23:50:02;97625.97;;;2.09;78.19
84232;BME280;74368;48.022;13.830;2023-11-22T23:52:29;97602.91;;;1.91;78.71
84232;BME280;74368;48.022;13.830;2023-11-22T23:54:55;97583.31;;;1.75;79.10
84232;BME280;74368;48.022;13.830;2023-11-22T23:57:22;97586.34;;;1.80;79.07
84232;BME280;74368;48.022;13.830;2023-11-22T23:59:48;97595.50;;;1.85;78.88
